Time;durP1;ratioP1;P1;durP2;ratioP2;P2;SDS_P1;SDS_P2;PMS_P1;PMS_P2;Temp;Humidity;BMP_temperature;BMP_pressure;BME280_temperature;BME280_humidity;BME280_pressure;Samples;Min_cycle;Max_cycle;Signal;HPM_P1;HPM_P2
2023/07/18 00:00:14;;;;;;;15.68;4.88;;;;;;;14.49;98.27;101971.03;4995685;28;20064;-78
2023/07/18 00:02:40;;;;;;;14.27;3.90;;;;;;;14.51;98.74;101960.94;5003099;28;20389;-79
2023/07/18 00:05:07;;;;;;;14.63;4.38;;;;;;;14.49;99.16;101959.31;4993534;28;20428;-78
2023/07/18 00:07:34;;;;;;;15.43;4.50;;;;;;;14.43;98.83;101962.47;5008092;28;20049;-78
2023/07/18 00:09:59;;;;;;;13.95;4.70;;;;;;;14.42;98.48;101961.63;5000424;28;20034;-78
2023/07/18 00:12:25;;;;;;;12.38;4.07;;;;;;;14.38;99.26;101965.53;5000137;28;20037;-79
2023/07/18 00:14:50;;;;;;;15.75;3.80;;;;;;;14.33;99.43;101968.56;4997363;28;20030;-79
2023/07/18 00:17:15;;;;;;;12.98;4.85;;;;;;;14.33;99.12;101973.09;4999843;28;20021;-79
2023/07/18 00:19:41;;;;;;;15.02;4.85;;;;;;;14.33;100.00;101965.84;4996321;28;20495;-79
2023/07/18 00:22:07;;;;;;;17.55;4.43;;;;;;;14.32;100.00;101972.22;4999316;28;20064;-79
2023/07/18 00:24:33;;;;;;;16.52;4.88;;;;;;;14.26;99.96;101972.69;4998644;28;20394;-78
2023/07/18 00:26:59;;;;;;;14.32;4.45;;;;;;;14.27;100.00;101974.38;4995316;28;20073;-78
2023/07/18 00:29:24;;;;;;;15.02;4.93;;;;;;;14.25;100.00;101967.38;4998173;28;20041;-79
2023/07/18 00:31:50;;;;;;;17.23;5.35;;;;;;;14.24;100.00;101979.16;5004383;28;20022;-79
2023/07/18 00:34:15;;;;;;;20.08;5.10;;;;;;;14.23;100.00;101972.00;4999651;28;20124;-79
2023/07/18 00:36:41;;;;;;;15.43;5.15;;;;;;;14.21;100.00;101972.13;5001534;28;20460;-79
2023/07/18 00:39:07;;;;;;;18.23;5.40;;;;;;;14.21;100.00;101971.25;4992570;28;20645;-78
2023/07/18 00:41:33;;;;;;;16.35;5.57;;;;;;;14.22;100.00;101971.16;4994532;28;20355;-79
2023/07/18 00:43:58;;;;;;;17.70;5.72;;;;;;;14.22;100.00;101959.50;4992204;28;20037;-79
2023/07/18 00:46:24;;;;;;;16.23;5.50;;;;;;;14.20;100.00;101962.28;5000332;28;20026;-79
2023/07/18 00:48:49;;;;;;;17.40;5.57;;;;;;;14.23;100.00;101970.19;4997584;28;20022;-78
2023/07/18 00:51:15;;;;;;;16.88;6.22;;;;;;;14.23;100.00;101962.09;4996083;28;20137;-79
2023/07/18 00:53:41;;;;;;;20.40;6.43;;;;;;;14.24;100.00;101958.38;5001066;28;20146;-79
2023/07/18 00:56:06;;;;;;;17.05;5.68;;;;;;;14.23;100.00;101961.19;5000478;28;20018;-79
2023/07/18 00:58:32;;;;;;;17.42;5.47;;;;;;;14.22;100.00;101954.06;4990942;28;20030;-79
2023/07/18 01:00:59;;;;;;;16.55;5.32;;;;;;;14.19;100.00;101954.28;4997455;28;20108;-78
2023/07/18 01:03:25;;;;;;;18.20;6.03;;;;;;;14.15;100.00;101950.94;4996439;28;20542;-78
2023/07/18 01:05:50;;;;;;;16.70;6.35;;;;;;;14.15;100.00;101953.63;5002899;28;20029;-78
2023/07/18 01:08:15;;;;;;;17.40;5.47;;;;;;;14.13;100.00;101948.34;4998641;28;20102;-78
2023/07/18 01:10:41;;;;;;;15.45;5.22;;;;;;;14.10;100.00;101956.66;4987714;28;20050;-78
2023/07/18 01:13:06;;;;;;;19.85;5.55;;;;;;;14.07;100.00;101947.91;4996604;28;20513;-78
2023/07/18 01:15:33;;;;;;;17.48;5.95;;;;;;;14.05;100.00;101955.25;5000235;28;20080;-78
2023/07/18 01:18:02;;;;;;;15.30;5.20;;;;;;;13.99;100.00;101954.69;4999280;28;20033;-79
2023/07/18 01:20:29;;;;;;;17.23;5.68;;;;;;;13.95;100.00;101945.09;5001014;28;20175;-79
2023/07/18 01:22:59;;;;;;;17.10;5.35;;;;;;;13.92;100.00;101941.75;4994508;28;20022;-78
2023/07/18 01:25:26;;;;;;;16.80;5.65;;;;;;;13.86;100.00;101934.91;5002453;28;20504;-78
2023/07/18 01:27:54;;;;;;;15.93;5.55;;;;;;;13.87;100.00;101939.38;4992318;28;20116;-78
2023/07/18 01:30:23;;;;;;;16.73;5.35;;;;;;;13.82;100.00;101938.81;4991873;28;20034;-78
2023/07/18 01:32:48;;;;;;;19.10;5.97;;;;;;;13.78;100.00;101937.31;5000661;28;20087;-78
2023/07/18 01:35:15;;;;;;;16.92;4.88;;;;;;;13.77;100.00;101940.97;5000476;28;20420;-78
2023/07/18 01:37:44;;;;;;;18.42;6.00;;;;;;;13.74;100.00;101939.34;4991989;28;20047;-78
2023/07/18 01:40:14;;;;;;;19.83;5.75;;;;;;;13.75;100.00;101932.13;4993716;28;20033;-78
2023/07/18 01:42:40;;;;;;;13.25;5.20;;;;;;;13.73;100.00;101934.91;4995526;28;20036;-78
2023/07/18 01:45:06;;;;;;;18.30;5.72;;;;;;;13.64;100.00;101922.91;4998525;28;20029;-78
2023/07/18 01:47:31;;;;;;;18.75;5.95;;;;;;;13.64;100.00;101922.91;4996128;28;20109;-78
2023/07/18 01:50:03;;;;;;;16.95;4.80;;;;;;;13.67;100.00;101921.81;4999706;28;20137;-78
2023/07/18 01:52:29;;;;;;;18.40;5.40;;;;;;;13.64;100.00;101914.78;4996866;28;20520;-79
2023/07/18 01:54:58;;;;;;;15.93;5.35;;;;;;;13.62;100.00;101924.84;4997142;28;20163;-78
2023/07/18 01:57:45;;;;;;;15.05;4.63;;;;;;;13.67;100.00;101924.53;4998712;28;20036;-78
2023/07/18 02:00:12;;;;;;;15.32;5.65;;;;;;;13.69;100.00;101916.31;4990467;28;20018;-78
2023/07/18 02:02:38;;;;;;;17.17;6.07;;;;;;;13.72;100.00;101918.81;5003746;28;20037;-78
2023/07/18 02:05:04;;;;;;;17.85;6.00;;;;;;;13.72;100.00;101918.81;4998545;28;20061;-78
2023/07/18 02:07:30;;;;;;;17.55;5.57;;;;;;;13.72;100.00;101916.97;4997280;28;20096;-78
2023/07/18 02:09:56;;;;;;;17.05;5.38;;;;;;;13.73;100.00;101915.13;4999053;28;20040;-78
2023/07/18 02:12:21;;;;;;;18.05;5.18;;;;;;;13.74;100.00;101908.78;4993770;28;20022;-78
2023/07/18 02:14:46;;;;;;;16.50;4.95;;;;;;;13.75;100.00;101910.50;4999758;28;20026;-78
2023/07/18 02:17:12;;;;;;;23.38;5.47;;;;;;;13.73;100.00;101910.59;5002364;28;20030;-78
2023/07/18 02:19:37;;;;;;;16.27;5.15;;;;;;;13.74;100.00;101908.78;4992099;28;20539;-78
2023/07/18 02:22:03;;;;;;;16.42;5.03;;;;;;;13.70;100.00;101909.94;4989460;28;20030;-78
2023/07/18 02:24:30;;;;;;;13.82;4.75;;;;;;;13.68;99.79;101906.50;4996458;28;20030;-78
2023/07/18 02:26:55;;;;;;;15.77;5.28;;;;;;;13.64;99.84;101906.69;4999320;28;20022;-78
2023/07/18 02:29:21;;;;;;;16.10;4.85;;;;;;;13.60;99.50;101907.91;4990249;28;20133;-78
2023/07/18 02:31:47;;;;;;;17.10;5.05;;;;;;;13.54;99.32;101910.16;4996021;28;20182;-78
2023/07/18 02:34:13;;;;;;;15.45;4.95;;;;;;;13.55;99.51;101911.88;5006105;28;20029;-78
2023/07/18 02:36:38;;;;;;;13.90;4.85;;;;;;;13.49;98.77;101907.78;4994354;28;20026;-78
2023/07/18 02:39:07;;;;;;;14.68;5.07;;;;;;;13.44;98.82;101912.59;4996978;28;20418;-78
2023/07/18 02:41:33;;;;;;;14.30;4.88;;;;;;;13.38;99.23;101908.50;4994759;28;20041;-78
2023/07/18 02:43:58;;;;;;;16.92;4.88;;;;;;;13.34;99.69;101909.69;5000710;28;20339;-78
2023/07/18 02:46:24;;;;;;;15.68;4.45;;;;;;;13.32;99.47;101911.56;4999188;28;20117;-78
2023/07/18 02:48:49;;;;;;;14.77;4.68;;;;;;;13.31;99.20;101911.69;4995760;28;20037;-78
2023/07/18 02:51:15;;;;;;;13.50;5.03;;;;;;;13.33;99.34;101909.75;5009461;28;20068;-78
2023/07/18 02:53:40;;;;;;;15.35;5.38;;;;;;;13.33;99.03;101905.22;5001421;28;20026;-78
2023/07/18 02:56:05;;;;;;;14.10;4.70;;;;;;;13.32;99.26;101906.19;4999402;28;20033;-78
2023/07/18 02:58:31;;;;;;;16.08;5.03;;;;;;;13.27;98.64;101901.09;4993154;28;20554;-78
2023/07/18 03:00:56;;;;;;;12.52;4.10;;;;;;;13.25;98.46;101907.56;5002331;28;20113;-78
2023/07/18 03:03:22;;;;;;;12.10;3.92;;;;;;;13.24;98.06;101909.41;4998855;28;20030;-78
2023/07/18 03:05:52;;;;;;;13.48;4.05;;;;;;;13.23;97.65;101906.81;5001335;28;20052;-78
2023/07/18 03:08:17;;;;;;;16.70;4.25;;;;;;;13.24;97.81;101905.84;4992556;28;20030;-78
2023/07/18 03:10:43;;;;;;;15.27;4.43;;;;;;;13.25;97.96;101905.75;4992880;28;20026;-78
2023/07/18 03:13:08;;;;;;;11.15;3.72;;;;;;;13.22;97.71;101900.56;4992814;28;20088;-78
2023/07/18 03:15:34;;;;;;;12.93;3.95;;;;;;;13.20;97.38;101904.31;4996881;28;20061;-78
2023/07/18 03:18:00;;;;;;;12.68;3.65;;;;;;;13.17;97.35;101905.38;4988114;28;20109;-78
2023/07/18 03:20:26;;;;;;;12.40;3.95;;;;;;;13.17;97.32;101905.38;4996410;28;20030;-78
2023/07/18 03:22:52;;;;;;;9.68;3.90;;;;;;;13.15;96.81;101898.34;4993154;28;20533;-78
2023/07/18 03:25:19;;;;;;;13.18;4.18;;;;;;;13.16;96.82;101900.94;4989675;28;20026;-78
2023/07/18 03:27:45;;;;;;;12.15;3.70;;;;;;;13.15;96.81;101898.34;5001309;28;20022;-78
2023/07/18 03:30:12;;;;;;;15.90;4.18;;;;;;;13.11;96.81;101898.56;4992624;28;20045;-78
2023/07/18 03:32:38;;;;;;;15.13;4.10;;;;;;;13.07;96.67;101899.72;5000355;28;20060;-78
2023/07/18 03:35:06;;;;;;;16.30;4.85;;;;;;;13.00;96.94;101897.56;4994742;28;20038;-78
2023/07/18 03:37:32;;;;;;;14.23;4.20;;;;;;;12.94;96.57;101897.00;4997337;28;20056;-78
2023/07/18 03:39:57;;;;;;;13.35;4.45;;;;;;;12.89;96.53;101898.28;5001101;28;20041;-78
2023/07/18 03:42:23;;;;;;;11.77;4.03;;;;;;;12.87;96.74;101900.19;4993307;28;20030;-78
2023/07/18 03:44:48;;;;;;;16.02;4.22;;;;;;;12.82;97.44;101900.50;4997004;28;20034;-79
2023/07/18 03:47:13;;;;;;;11.50;4.07;;;;;;;12.79;97.05;101902.56;4998140;28;20501;-78
2023/07/18 03:49:38;;;;;;;11.88;3.70;;;;;;;12.71;97.24;101894.97;4999496;28;20030;-78
2023/07/18 03:52:05;;;;;;;11.38;3.83;;;;;;;12.67;97.61;101906.94;4995262;28;20061;-79
2023/07/18 03:54:32;;;;;;;12.00;3.90;;;;;;;12.64;97.60;101899.03;4993135;28;20038;-78
2023/07/18 03:56:57;;;;;;;10.27;3.55;;;;;;;12.58;98.00;101898.47;4988353;28;20113;-78
2023/07/18 03:59:23;;;;;;;12.52;4.00;;;;;;;12.53;97.69;101902.41;4997142;28;20482;-78
2023/07/18 04:01:48;;;;;;;12.40;3.67;;;;;;;12.47;98.04;101887.50;4991963;28;20475;-78
2023/07/18 04:04:15;;;;;;;12.30;4.18;;;;;;;12.39;97.49;101900.63;4990430;28;20045;-78
2023/07/18 04:06:41;;;;;;;11.52;3.65;;;;;;;12.33;98.11;101890.22;4997105;28;20389;-78
2023/07/18 04:09:07;;;;;;;14.05;3.50;;;;;;;12.27;98.41;101890.59;4992191;28;20022;-78
2023/07/18 04:11:32;;;;;;;11.93;3.95;;;;;;;12.23;98.97;101882.72;5001343;28;20060;-78
2023/07/18 04:13:57;;;;;;;14.02;3.70;;;;;;;12.21;99.11;101875.69;4997203;28;20069;-78
2023/07/18 04:16:23;;;;;;;14.35;4.35;;;;;;;12.21;98.77;101878.38;5003560;28;20029;-78
2023/07/18 04:18:48;;;;;;;15.27;3.63;;;;;;;12.22;99.50;101872.03;4994445;28;20018;-78
2023/07/18 04:21:14;;;;;;;14.18;4.70;;;;;;;12.22;99.99;101878.28;5003787;28;20033;-78
2023/07/18 04:23:39;;;;;;;13.73;4.00;;;;;;;12.23;99.92;101874.63;4996796;28;20033;-78
2023/07/18 04:26:04;;;;;;;15.05;4.03;;;;;;;12.23;99.13;101866.56;5000039;28;20026;-78
2023/07/18 04:28:34;;;;;;;12.90;4.28;;;;;;;12.28;99.63;101865.41;5010619;28;20099;-78
2023/07/18 04:31:01;;;;;;;14.73;4.38;;;;;;;12.27;99.08;101871.75;4997605;28;20082;-78
2023/07/18 04:33:27;;;;;;;11.80;4.05;;;;;;;12.27;99.06;101869.94;4995170;28;20045;-78
2023/07/18 04:35:52;;;;;;;12.48;4.35;;;;;;;12.26;99.27;101873.59;4991219;28;20022;-78
2023/07/18 04:38:18;;;;;;;16.92;4.07;;;;;;;12.33;100.00;101872.22;5000652;28;20048;-78
2023/07/18 04:40:43;;;;;;;17.20;4.95;;;;;;;12.34;99.54;101870.38;5004654;28;20049;-78
2023/07/18 04:43:09;;;;;;;13.48;3.85;;;;;;;12.37;99.77;101878.28;5004800;28;20030;-78
2023/07/18 04:45:41;;;;;;;11.57;4.07;;;;;;;12.39;99.41;101866.44;4990005;28;20026;-78
2023/07/18 04:48:06;;;;;;;15.32;4.80;;;;;;;12.46;99.46;101868.72;4998498;28;20069;-78
2023/07/18 04:50:32;;;;;;;15.20;4.28;;;;;;;12.50;99.16;101870.25;5001168;28;20054;-78
2023/07/18 04:52:57;;;;;;;14.57;4.63;;;;;;;12.54;99.55;101872.66;4993674;28;20049;-78
2023/07/18 04:55:22;;;;;;;13.55;4.25;;;;;;;12.61;99.13;101869.53;4991709;28;20036;-78
2023/07/18 04:57:48;;;;;;;12.52;3.95;;;;;;;12.66;98.81;101864.72;4996943;28;20045;-78
2023/07/18 05:00:14;;;;;;;15.10;4.65;;;;;;;12.71;97.78;101860.78;4992548;28;20415;-78
2023/07/18 05:02:40;;;;;;;17.55;4.80;;;;;;;12.81;97.62;101862.84;4997736;28;20058;-78
2023/07/18 05:05:07;;;;;;;16.38;4.15;;;;;;;12.86;97.11;101861.56;4996155;28;20033;-78
2023/07/18 05:07:32;;;;;;;16.85;4.07;;;;;;;12.95;97.22;101860.09;5004307;28;20026;-78
2023/07/18 05:09:57;;;;;;;15.13;4.50;;;;;;;13.01;98.02;101865.06;4998436;28;20099;-78
2023/07/18 05:12:23;;;;;;;14.65;4.10;;;;;;;13.05;96.48;101871.13;5001030;28;20083;-78
2023/07/18 05:14:48;;;;;;;14.05;4.43;;;;;;;13.09;96.28;101870.81;4999276;28;20022;-78
2023/07/18 05:17:13;;;;;;;16.70;3.70;;;;;;;13.16;96.25;101865.84;4992984;28;20070;-76
2023/07/18 05:19:38;;;;;;;13.88;3.90;;;;;;;13.23;96.53;101863.63;4992635;28;20026;-76
2023/07/18 05:22:04;;;;;;;16.23;4.47;;;;;;;13.28;96.07;101865.03;4992722;28;20133;-76
2023/07/18 05:24:30;;;;;;;15.02;4.10;;;;;;;13.36;95.51;101861.84;4990138;28;20066;-76
2023/07/18 05:26:55;;;;;;;12.88;3.45;;;;;;;13.40;95.83;101859.81;4993056;28;20495;-77
2023/07/18 05:29:20;;;;;;;15.70;4.32;;;;;;;13.46;95.40;101862.94;4992313;28;20053;-76
2023/07/18 05:31:46;;;;;;;13.77;4.05;;;;;;;13.51;94.43;101873.41;4987370;28;20018;-76
2023/07/18 05:34:11;;;;;;;14.43;4.10;;;;;;;13.57;94.80;101861.31;4990919;28;20470;-76
2023/07/18 05:36:36;;;;;;;12.18;4.00;;;;;;;13.62;94.51;101860.03;4997064;28;20426;-76
2023/07/18 05:39:02;;;;;;;16.33;4.38;;;;;;;13.67;94.24;101857.00;4998140;28;20050;-76
2023/07/18 05:41:28;;;;;;;13.52;4.03;;;;;;;13.75;94.05;101860.03;5001662;28;20144;-77
2023/07/18 05:43:53;;;;;;;12.82;3.85;;;;;;;13.82;93.92;101863.16;4998713;28;20030;-76
2023/07/18 05:46:18;;;;;;;12.00;3.92;;;;;;;13.89;93.63;101869.84;4994541;28;20065;-76
2023/07/18 05:48:44;;;;;;;13.93;4.15;;;;;;;13.95;93.64;101872.13;5002876;28;20141;-76
2023/07/18 05:51:09;;;;;;;8.98;3.55;;;;;;;14.04;93.06;101864.31;4993415;28;20475;-76
2023/07/18 05:53:34;;;;;;;14.35;4.30;;;;;;;14.09;92.97;101865.72;4988788;28;20486;-76
2023/07/18 05:56:00;;;;;;;15.02;4.55;;;;;;;14.19;93.01;101868.63;5002007;28;20374;-76
2023/07/18 05:58:25;;;;;;;17.40;4.05;;;;;;;14.25;92.47;101875.44;4996756;28;20183;-76
2023/07/18 06:00:50;;;;;;;14.95;4.38;;;;;;;14.28;92.77;101876.06;4998696;28;20729;-77
2023/07/18 06:03:17;;;;;;;14.18;3.90;;;;;;;14.37;92.54;101876.38;4996363;28;20037;-76
2023/07/18 06:05:42;;;;;;;12.80;3.38;;;;;;;14.41;91.43;101875.19;4992310;28;20022;-77
2023/07/18 06:08:09;;;;;;;14.38;3.83;;;;;;;14.47;92.35;101880.16;4999545;28;20109;-76
2023/07/18 06:10:34;;;;;;;16.35;4.47;;;;;;;14.54;91.81;101876.00;4989729;28;20022;-76
2023/07/18 06:13:00;;;;;;;14.90;4.65;;;;;;;14.63;92.39;101872.66;4990361;28;20030;-76
2023/07/18 06:15:25;;;;;;;15.50;4.43;;;;;;;14.71;92.43;101884.75;4990492;28;20026;-77
2023/07/18 06:17:52;;;;;;;9.25;3.30;;;;;;;14.77;91.19;101876.16;4988604;28;20032;-76
2023/07/18 06:20:18;;;;;;;13.05;3.55;;;;;;;14.85;91.41;101869.19;4990410;28;20026;-81
2023/07/18 06:22:44;;;;;;;16.17;4.13;;;;;;;14.89;90.28;101875.25;4996084;28;20048;-82
2023/07/18 06:25:10;;;;;;;13.43;4.18;;;;;;;14.96;89.79;101871.09;4998881;28;20038;-80
2023/07/18 06:27:35;;;;;;;10.82;3.38;;;;;;;15.03;89.68;101871.50;5000823;28;20549;-81
2023/07/18 06:30:01;;;;;;;11.10;3.72;;;;;;;15.09;89.82;101865.59;5002481;28;20037;-80
2023/07/18 06:32:28;;;;;;;10.18;3.15;;;;;;;15.16;89.42;101875.00;4995161;28;20061;-80
2023/07/18 06:34:54;;;;;;;10.85;3.60;;;;;;;15.24;89.02;101878.97;5002202;28;20048;-81
2023/07/18 06:37:19;;;;;;;13.57;4.03;;;;;;;15.30;89.58;101873.94;4992480;28;20038;-81
2023/07/18 06:39:45;;;;;;;11.18;3.00;;;;;;;15.37;89.53;101877.91;5000843;28;20116;-81
2023/07/18 06:42:10;;;;;;;13.13;3.72;;;;;;;15.43;88.71;101872.97;4995356;28;20074;-81
2023/07/18 06:44:36;;;;;;;11.38;3.38;;;;;;;15.49;86.66;101872.50;5002764;28;20491;-81
2023/07/18 06:47:02;;;;;;;11.07;3.35;;;;;;;15.54;86.15;101868.44;4998504;28;20038;-81
2023/07/18 06:49:28;;;;;;;11.50;3.10;;;;;;;15.60;85.61;101877.94;4994288;28;20014;-81
2023/07/18 06:51:53;;;;;;;12.45;2.90;;;;;;;15.68;85.66;101869.22;4994807;28;20029;-81
2023/07/18 06:54:19;;;;;;;12.68;3.47;;;;;;;15.72;84.50;101868.88;5002193;28;20390;-80
2023/07/18 06:56:45;;;;;;;9.50;3.00;;;;;;;15.80;83.86;101870.13;4993768;28;20042;-82
2023/07/18 06:59:13;;;;;;;8.98;2.53;;;;;;;15.87;83.71;101861.41;4999358;28;20512;-82
2023/07/18 07:01:38;;;;;;;10.05;2.67;;;;;;;15.93;82.30;101865.47;4984415;28;20022;-81
2023/07/18 07:04:03;;;;;;;7.07;2.08;;;;;;;15.99;81.64;101872.22;4998604;28;20037;-81
2023/07/18 07:06:30;;;;;;;10.07;2.40;;;;;;;16.04;81.80;101879.00;4998988;28;20019;-80
2023/07/18 07:08:55;;;;;;;8.05;2.33;;;;;;;16.10;81.04;101872.22;5000389;28;20030;-82
2023/07/18 07:11:20;;;;;;;4.95;2.42;;;;;;;16.16;82.02;101871.72;5002901;28;20065;-82
2023/07/18 07:13:46;;;;;;;6.55;2.28;;;;;;;16.20;79.12;101867.78;5001781;28;20108;-80
2023/07/18 07:16:11;;;;;;;9.15;2.63;;;;;;;16.27;79.71;101873.59;4990827;28;20424;-80
2023/07/18 07:18:36;;;;;;;14.25;2.67;;;;;;;16.33;79.75;101864.94;4995747;28;20391;-81
2023/07/18 07:21:04;;;;;;;10.75;2.35;;;;;;;16.39;78.08;101866.28;4997237;28;20117;-82
2023/07/18 07:23:30;;;;;;;6.65;2.30;;;;;;;16.45;80.38;101857.66;4999602;28;20741;-81
2023/07/18 07:25:55;;;;;;;9.55;2.70;;;;;;;16.52;80.69;101860.72;4998993;28;20166;-81
2023/07/18 07:28:23;;;;;;;5.20;2.03;;;;;;;16.59;79.56;101872.81;4984584;28;20092;-81
2023/07/18 07:30:50;;;;;;;10.27;2.58;;;;;;;16.66;78.57;101865.88;5000363;28;20502;-81
2023/07/18 07:33:15;;;;;;;8.65;2.47;;;;;;;16.72;78.78;101868.06;4995883;28;20034;-80
2023/07/18 07:35:40;;;;;;;8.95;2.20;;;;;;;16.76;76.30;101860.53;5006226;28;20038;-88
2023/07/18 07:38:06;;;;;;;5.75;1.95;;;;;;;16.83;76.27;101866.31;5008176;28;20527;-87
2023/07/18 07:40:32;;;;;;;6.50;1.85;;;;;;;16.85;76.60;101867.03;5011312;28;20037;-84
2023/07/18 07:42:57;;;;;;;4.53;1.80;;;;;;;16.90;75.01;101857.56;5006991;28;20074;-84
2023/07/18 07:45:23;;;;;;;6.82;2.03;;;;;;;16.96;74.13;101866.19;5017538;28;20561;-80
2023/07/18 07:47:48;;;;;;;6.55;1.90;;;;;;;17.00;74.05;101865.78;5013887;28;20030;-88
2023/07/18 07:50:14;;;;;;;7.60;2.05;;;;;;;17.04;72.34;101872.69;5005814;28;20091;-81
2023/07/18 07:52:40;;;;;;;4.03;1.80;;;;;;;17.08;70.38;101865.97;5011194;28;20113;-81
2023/07/18 07:55:06;;;;;;;6.93;1.85;;;;;;;17.14;69.90;101870.03;5014470;28;20499;-80
2023/07/18 07:57:32;;;;;;;10.55;1.92;;;;;;;17.22;72.20;101863.94;4998546;28;20026;-82
2023/07/18 07:59:57;;;;;;;2.92;1.70;;;;;;;17.26;70.54;101863.56;5006702;28;20031;-83
2023/07/18 08:02:22;;;;;;;6.47;2.03;;;;;;;17.30;70.38;101856.84;5003152;28;20108;-81
2023/07/18 08:04:48;;;;;;;7.32;1.77;;;;;;;17.36;69.22;101863.63;4995208;28;20469;-80
2023/07/18 08:07:14;;;;;;;6.75;1.95;;;;;;;17.45;71.02;101861.97;4999944;28;20037;-80
2023/07/18 08:09:40;;;;;;;9.20;2.10;;;;;;;17.50;71.34;101859.72;4996013;28;20085;-79
2023/07/18 08:12:06;;;;;;;3.83;1.45;;;;;;;17.57;69.22;101860.03;4993272;28;20037;-80
2023/07/18 08:14:33;;;;;;;8.85;2.05;;;;;;;17.60;68.07;101859.75;4997848;28;20109;-80
2023/07/18 08:16:58;;;;;;;7.30;1.90;;;;;;;17.64;70.02;101855.78;5005534;28;20109;-80
2023/07/18 08:19:24;;;;;;;3.53;1.80;;;;;;;17.72;69.75;101858.72;4997034;28;20032;-81
2023/07/18 08:21:49;;;;;;;6.22;1.63;;;;;;;17.77;66.54;101851.00;5004416;28;20026;-80
2023/07/18 08:24:15;;;;;;;4.45;1.30;;;;;;;17.78;68.00;101860.03;4994882;28;20030;-80
2023/07/18 08:26:40;;;;;;;3.30;1.35;;;;;;;17.84;64.64;101855.91;4998198;28;20041;-80
2023/07/18 08:29:06;;;;;;;6.13;1.33;;;;;;;17.86;65.04;101852.03;5002569;28;20458;-80
2023/07/18 08:31:31;;;;;;;8.73;2.28;;;;;;;17.90;64.57;101844.53;4997430;28;20026;-79
2023/07/18 08:33:56;;;;;;;5.45;1.25;;;;;;;18.00;66.99;101845.41;4999725;28;20038;-79
2023/07/18 08:36:22;;;;;;;5.60;1.50;;;;;;;18.05;67.78;101842.28;4999892;28;20070;-79
2023/07/18 08:38:50;;;;;;;3.70;1.50;;;;;;;18.04;62.68;101838.72;4991137;28;20096;-85
2023/07/18 08:41:21;;;;;;;5.78;2.17;;;;;;;18.07;64.97;101834.84;4994818;28;20117;-79
2023/07/18 08:43:48;;;;;;;3.80;1.55;;;;;;;18.13;64.74;101832.44;4995814;28;20064;-77
2023/07/18 08:46:14;;;;;;;4.35;1.55;;;;;;;18.21;65.28;101836.34;4991818;28;20026;-78
2023/07/18 08:48:44;;;;;;;4.40;1.35;;;;;;;18.25;61.52;101832.34;5001113;28;20081;-79
2023/07/18 08:51:11;;;;;;;2.00;1.00;;;;;;;18.27;59.97;101835.78;4997070;28;20061;-79
2023/07/18 08:53:43;;;;;;;9.73;1.55;;;;;;;18.34;60.67;101826.06;5001031;28;20026;-78
2023/07/18 08:56:09;;;;;;;4.40;1.45;;;;;;;18.36;60.26;101834.97;4996272;28;20084;-79
2023/07/18 08:58:38;;;;;;;2.28;1.30;;;;;;;18.41;59.32;101831.81;4990874;28;20446;-80
2023/07/18 09:01:08;;;;;;;8.40;1.60;;;;;;;18.45;60.90;101825.09;4987416;28;20030;-79
2023/07/18 09:03:33;;;;;;;5.97;1.88;;;;;;;18.48;59.21;101817.50;4989155;28;20424;-79
2023/07/18 09:06:02;;;;;;;6.88;1.73;;;;;;;18.52;60.84;101810.75;5005192;28;20100;-79
2023/07/18 09:08:39;;;;;;;8.27;1.85;;;;;;;18.61;62.05;101816.34;5002426;28;20500;-80
2023/07/18 09:11:04;;;;;;;8.02;1.90;;;;;;;18.68;61.14;101822.94;4990179;28;20088;-79
2023/07/18 09:13:37;;;;;;;4.35;1.70;;;;;;;18.75;61.70;101810.47;4997739;28;20034;-79
2023/07/18 09:16:23;;;;;;;6.05;1.73;;;;;;;18.79;61.69;101809.19;5001743;28;20034;-79
2023/07/18 09:18:50;;;;;;;5.88;1.60;;;;;;;18.88;60.40;101809.38;5002327;28;20038;-79
2023/07/18 09:21:16;;;;;;;4.90;1.60;;;;;;;18.95;60.20;101802.38;4998651;28;20030;-79
2023/07/18 09:23:42;;;;;;;7.60;2.33;;;;;;;19.04;62.03;101796.03;4998728;28;20104;-79
2023/07/18 09:26:10;;;;;;;7.53;1.73;;;;;;;19.10;63.19;101792.72;4998494;28;20330;-79
2023/07/18 09:28:36;;;;;;;5.63;1.63;;;;;;;19.13;59.73;101784.25;5000685;28;20493;-79
2023/07/18 09:31:01;;;;;;;3.85;1.23;;;;;;;19.18;60.64;101798.31;4997709;28;20057;-80
2023/07/18 09:33:27;;;;;;;6.10;2.05;;;;;;;19.23;59.15;101786.97;4998652;28;20041;-80
2023/07/18 09:35:56;;;;;;;4.47;1.20;;;;;;;19.29;60.38;101790.97;4999286;28;20034;-79
2023/07/18 09:38:22;;;;;;;;;;;;;;;19.35;62.98;101785.78;4999333;28;20141;-79
2023/07/18 09:40:47;;;;;;;6.25;1.63;;;;;;;19.48;58.73;101782.75;4999663;28;19996;-79
2023/07/18 09:43:15;;;;;;;6.43;1.50;;;;;;;19.54;59.20;101786.75;4992392;28;20092;-79
2023/07/18 09:45:42;;;;;;;6.32;1.83;;;;;;;19.53;59.68;101780.44;4995383;28;20193;-79
2023/07/18 09:48:09;;;;;;;5.47;1.65;;;;;;;19.49;58.87;101787.19;5000811;28;20052;-79
2023/07/18 09:50:37;;;;;;;7.38;1.38;;;;;;;19.46;56.84;101789.34;4992197;28;20034;-79
2023/07/18 09:53:10;;;;;;;4.95;1.52;;;;;;;19.44;58.49;101789.50;5000781;28;20120;-79
2023/07/18 09:55:38;;;;;;;5.88;1.58;;;;;;;19.45;58.68;101788.50;5000818;28;20037;-79
2023/07/18 09:58:05;;;;;;;5.20;1.58;;;;;;;19.51;57.50;101790.63;4999567;28;20014;-79
2023/07/18 10:00:32;;;;;;;4.70;1.85;;;;;;;19.50;56.94;101782.59;5019449;28;20068;-79
2023/07/18 10:02:58;;;;;;;9.10;1.85;;;;;;;19.58;55.64;101779.13;4999898;28;20038;-79
2023/07/18 10:05:24;;;;;;;5.47;1.58;;;;;;;19.68;57.44;101769.06;4998279;28;20502;-79
2023/07/18 10:07:49;;;;;;;5.32;1.33;;;;;;;19.78;57.60;101774.44;5000193;28;20038;-79
2023/07/18 10:10:15;;;;;;;5.40;1.85;;;;;;;19.82;57.86;101762.25;4996529;28;20026;-79
2023/07/18 10:12:53;;;;;;;7.03;1.60;;;;;;;19.84;58.52;101774.75;4994726;28;20041;-79
2023/07/18 10:15:19;;;;;;;3.85;1.55;;;;;;;19.85;56.13;101760.06;4997291;28;20412;-80
2023/07/18 10:17:44;;;;;;;3.58;1.40;;;;;;;19.86;54.87;101745.44;5002513;28;20022;-79
2023/07/18 10:20:13;;;;;;;3.40;1.27;;;;;;;19.84;56.13;101736.56;4997177;28;20033;-79
2023/07/18 10:22:49;;;;;;;7.40;1.30;;;;;;;19.86;58.45;101730.94;5000255;28;20433;-79
2023/07/18 10:25:17;;;;;;;4.25;1.63;;;;;;;19.84;55.43;101735.69;5002224;28;20109;-80
2023/07/18 10:27:44;;;;;;;6.45;1.75;;;;;;;19.79;55.70;101736.13;5001811;28;20032;-80
2023/07/18 10:30:12;;;;;;;5.90;1.48;;;;;;;19.78;55.80;101726.25;4998937;28;20068;-79
2023/07/18 10:32:38;;;;;;;4.22;1.60;;;;;;;19.78;54.22;101730.81;4997883;28;20425;-79
2023/07/18 10:35:12;;;;;;;5.38;1.42;;;;;;;19.82;55.30;101726.81;5004211;28;20019;-79
2023/07/18 10:37:43;;;;;;;4.50;1.60;;;;;;;19.91;59.60;101723.16;4997588;28;20054;-79
2023/07/18 10:40:08;;;;;;;7.65;1.73;;;;;;;19.90;57.13;101719.56;4997848;28;20371;-79
2023/07/18 10:42:34;;;;;;;4.38;1.38;;;;;;;19.98;55.75;101720.69;5000771;28;20033;-80
2023/07/18 10:45:04;;;;;;;4.00;1.52;;;;;;;20.05;53.66;101728.09;5001040;28;20087;-79
2023/07/18 10:47:31;;;;;;;2.90;1.55;;;;;;;20.14;56.83;101722.75;4997611;28;20117;-80
2023/07/18 10:49:56;;;;;;;5.38;1.63;;;;;;;20.22;57.66;101718.22;4998864;28;20387;-80
2023/07/18 10:52:22;;;;;;;3.35;1.15;;;;;;;20.27;57.92;101716.91;4991326;28;20060;-79
2023/07/18 10:54:50;;;;;;;5.25;1.67;;;;;;;20.28;56.20;101715.88;4992136;28;20386;-80
2023/07/18 10:57:16;;;;;;;4.68;1.52;;;;;;;20.30;55.53;101713.88;4997130;28;20030;-80
2023/07/18 10:59:44;;;;;;;5.85;1.92;;;;;;;20.33;56.37;101716.28;5000729;28;20347;-79
2023/07/18 11:02:11;;;;;;;3.67;1.20;;;;;;;20.34;55.53;101704.34;4998503;28;20038;-79
2023/07/18 11:04:36;;;;;;;6.55;1.52;;;;;;;20.42;56.03;101699.84;4994764;28;20061;-78
2023/07/18 11:07:01;;;;;;;9.02;1.92;;;;;;;20.44;55.95;101707.88;4999237;28;20069;-80
2023/07/18 11:09:27;;;;;;;11.95;2.25;;;;;;;20.45;55.86;101709.56;4998612;28;20054;-80
2023/07/18 11:11:54;;;;;;;4.63;1.70;;;;;;;20.51;57.20;101711.66;4998257;28;20030;-80
2023/07/18 11:14:19;;;;;;;10.07;1.80;;;;;;;20.55;54.54;101715.78;4997438;28;20474;-79